sensor_id;sensor_type;location;lat;lon;timestamp;temperature;humidity
47618;DHT22;33336;36.728;-4.414;2023-11-19T00:02:44;19.40;99.90
47618;DHT22;33336;36.728;-4.414;2023-11-19T00:07:49;19.30;99.90
47618;DHT22;33336;36.728;-4.414;2023-11-19T00:12:54;19.30;99.90
47618;DHT22;33336;36.728;-4.414;2023-11-19T00:17:58;19.60;99.90
47618;DHT22;33336;36.728;-4.414;2023-11-19T00:23:00;19.60;99.90
47618;DHT22;33336;36.728;-4.414;2023-11-19T00:28:06;19.30;99.90
47618;DHT22;33336;36.728;-4.414;2023-11-19T00:33:09;19.40;99.90
47618;DHT22;33336;36.728;-4.414;2023-11-19T00:38:12;18.80;99.90
47618;DHT22;33336;36.728;-4.414;2023-11-19T00:43:16;18.60;99.90
47618;DHT22;33336;36.728;-4.414;2023-11-19T00:48:23;18.70;99.90
47618;DHT22;33336;36.728;-4.414;2023-11-19T00:53:26;19.00;99.90
47618;DHT22;33336;36.728;-4.414;2023-11-19T00:58:31;18.80;99.90
47618;DHT22;33336;36.728;-4.414;2023-11-19T01:03:33;19.00;99.90
47618;DHT22;33336;36.728;-4.414;2023-11-19T01:08:37;18.90;99.90
47618;DHT22;33336;36.728;-4.414;2023-11-19T01:13:42;19.00;99.90
47618;DHT22;33336;36.728;-4.414;2023-11-19T01:18:47;19.00;99.90
47618;DHT22;33336;36.728;-4.414;2023-11-19T01:23:50;18.90;99.90
47618;DHT22;33336;36.728;-4.414;2023-11-19T01:28:54;19.00;99.90
47618;DHT22;33336;36.728;-4.414;2023-11-19T01:33:57;18.80;99.90
47618;DHT22;33336;36.728;-4.414;2023-11-19T01:39:00;18.70;99.90
47618;DHT22;33336;36.728;-4.414;2023-11-19T01:44:07;18.50;99.90
47618;DHT22;33336;36.728;-4.414;2023-11-19T01:49:10;18.40;99.90
47618;DHT22;33336;36.728;-4.414;2023-11-19T01:54:14;18.50;99.90
47618;DHT22;33336;36.728;-4.414;2023-11-19T01:59:19;18.70;99.90
47618;DHT22;33336;36.728;-4.414;2023-11-19T02:04:27;18.40;99.90
47618;DHT22;33336;36.728;-4.414;2023-11-19T02:09:30;18.30;99.90
47618;DHT22;33336;36.728;-4.414;2023-11-19T02:14:34;18.10;99.90
47618;DHT22;33336;36.728;-4.414;2023-11-19T02:19:38;17.40;99.90
47618;DHT22;33336;36.728;-4.414;2023-11-19T02:24:41;17.80;99.90
47618;DHT22;33336;36.728;-4.414;2023-11-19T02:29:47;17.40;99.90
47618;DHT22;33336;36.728;-4.414;2023-11-19T02:34:50;17.50;99.90
47618;DHT22;33336;36.728;-4.414;2023-11-19T02:39:54;17.40;99.90
47618;DHT22;33336;36.728;-4.414;2023-11-19T02:44:59;17.30;99.90
47618;DHT22;33336;36.728;-4.414;2023-11-19T02:50:03;17.20;99.90
47618;DHT22;33336;36.728;-4.414;2023-11-19T02:55:08;17.40;99.90
47618;DHT22;33336;36.728;-4.414;2023-11-19T03:00:17;17.40;99.90
47618;DHT22;33336;36.728;-4.414;2023-11-19T03:05:20;17.20;99.90
47618;DHT22;33336;36.728;-4.414;2023-11-19T03:10:23;17.40;99.90
47618;DHT22;33336;36.728;-4.414;2023-11-19T03:15:28;17.50;99.90
47618;DHT22;33336;36.728;-4.414;2023-11-19T03:20:31;17.50;99.90
47618;DHT22;33336;36.728;-4.414;2023-11-19T03:25:34;17.40;99.90
47618;DHT22;33336;36.728;-4.414;2023-11-19T03:30:40;17.50;99.90
47618;DHT22;33336;36.728;-4.414;2023-11-19T03:35:42;17.70;99.90
47618;DHT22;33336;36.728;-4.414;2023-11-19T03:40:46;17.30;99.90
47618;DHT22;33336;36.728;-4.414;2023-11-19T03:45:50;16.80;99.90
47618;DHT22;33336;36.728;-4.414;2023-11-19T03:50:55;17.10;99.90
47618;DHT22;33336;36.728;-4.414;2023-11-19T03:55:58;16.70;99.90
47618;DHT22;33336;36.728;-4.414;2023-11-19T04:01:03;16.70;99.90
47618;DHT22;33336;36.728;-4.414;2023-11-19T04:06:06;17.00;99.90
47618;DHT22;33336;36.728;-4.414;2023-11-19T04:11:09;17.20;99.90
47618;DHT22;33336;36.728;-4.414;2023-11-19T04:16:14;16.90;99.90
47618;DHT22;33336;36.728;-4.414;2023-11-19T04:21:17;16.60;99.90
47618;DHT22;33336;36.728;-4.414;2023-11-19T04:26:20;16.50;99.90
47618;DHT22;33336;36.728;-4.414;2023-11-19T04:31:29;16.30;99.90
47618;DHT22;33336;36.728;-4.414;2023-11-19T04:36:32;16.60;99.90
47618;DHT22;33336;36.728;-4.414;2023-11-19T04:41:36;16.60;99.90
47618;DHT22;33336;36.728;-4.414;2023-11-19T04:46:40;16.60;99.90
47618;DHT22;33336;36.728;-4.414;2023-11-19T04:51:45;16.30;99.90
47618;DHT22;33336;36.728;-4.414;2023-11-19T04:56:49;16.30;99.90
47618;DHT22;33336;36.728;-4.414;2023-11-19T05:01:55;16.60;99.90
47618;DHT22;33336;36.728;-4.414;2023-11-19T05:06:57;16.60;99.90
47618;DHT22;33336;36.728;-4.414;2023-11-19T05:12:01;16.50;99.90
47618;DHT22;33336;36.728;-4.414;2023-11-19T05:17:05;16.50;99.90
47618;DHT22;33336;36.728;-4.414;2023-11-19T05:22:09;16.40;99.90
47618;DHT22;33336;36.728;-4.414;2023-11-19T05:27:12;16.20;99.90
47618;DHT22;33336;36.728;-4.414;2023-11-19T05:32:18;16.50;99.90
47618;DHT22;33336;36.728;-4.414;2023-11-19T05:37:20;16.40;99.90
47618;DHT22;33336;36.728;-4.414;2023-11-19T05:42:24;16.40;99.90
47618;DHT22;33336;36.728;-4.414;2023-11-19T05:47:30;16.00;99.90
47618;DHT22;33336;36.728;-4.414;2023-11-19T05:52:33;16.10;99.90
47618;DHT22;33336;36.728;-4.414;2023-11-19T05:57:36;16.10;99.90
47618;DHT22;33336;36.728;-4.414;2023-11-19T06:02:41;15.90;99.90
47618;DHT22;33336;36.728;-4.414;2023-11-19T06:07:44;16.10;99.90
47618;DHT22;33336;36.728;-4.414;2023-11-19T06:12:48;16.00;99.90
47618;DHT22;33336;36.728;-4.414;2023-11-19T06:17:58;15.90;99.90
47618;DHT22;33336;36.728;-4.414;2023-11-19T06:23:03;16.00;99.90
47618;DHT22;33336;36.728;-4.414;2023-11-19T06:28:06;16.40;99.90
47618;DHT22;33336;36.728;-4.414;2023-11-19T06:33:12;16.60;99.90
47618;DHT22;33336;36.728;-4.414;2023-11-19T06:38:15;16.80;99.90
47618;DHT22;33336;36.728;-4.414;2023-11-19T06:43:19;16.50;99.90
47618;DHT22;33336;36.728;-4.414;2023-11-19T06:48:24;16.10;99.90
47618;DHT22;33336;36.728;-4.414;2023-11-19T06:53:27;16.50;99.90
47618;DHT22;33336;36.728;-4.414;2023-11-19T06:58:31;16.30;99.90
47618;DHT22;33336;36.728;-4.414;2023-11-19T07:03:36;16.20;99.90
47618;DHT22;33336;36.728;-4.414;2023-11-19T07:08:39;16.20;99.90
47618;DHT22;33336;36.728;-4.414;2023-11-19T07:13:43;16.20;99.90
47618;DHT22;33336;36.728;-4.414;2023-11-19T07:18:48;16.00;99.90
47618;DHT22;33336;36.728;-4.414;2023-11-19T07:23:51;16.30;99.90
47618;DHT22;33336;36.728;-4.414;2023-11-19T07:28:54;16.20;99.90
47618;DHT22;33336;36.728;-4.414;2023-11-19T07:34:00;16.40;99.90
47618;DHT22;33336;36.728;-4.414;2023-11-19T07:39:04;16.50;99.90
47618;DHT22;33336;36.728;-4.414;2023-11-19T07:44:07;16.70;99.90
47618;DHT22;33336;36.728;-4.414;2023-11-19T07:49:11;16.80;99.90
47618;DHT22;33336;36.728;-4.414;2023-11-19T07:54:17;17.00;99.60
47618;DHT22;33336;36.728;-4.414;2023-11-19T07:59:20;16.90;99.60
47618;DHT22;33336;36.728;-4.414;2023-11-19T08:04:24;16.60;99.00
47618;DHT22;33336;36.728;-4.414;2023-11-19T08:09:27;16.40;99.50
47618;DHT22;33336;36.728;-4.414;2023-11-19T08:14:31;16.50;99.50
47618;DHT22;33336;36.728;-4.414;2023-11-19T08:19:35;17.10;98.90
47618;DHT22;33336;36.728;-4.414;2023-11-19T08:24:39;17.20;98.80
47618;DHT22;33336;36.728;-4.414;2023-11-19T08:29:42;17.10;98.60
47618;DHT22;33336;36.728;-4.414;2023-11-19T08:34:47;17.00;98.50
47618;DHT22;33336;36.728;-4.414;2023-11-19T08:39:50;17.10;98.90
47618;DHT22;33336;36.728;-4.414;2023-11-19T08:44:53;17.30;98.60
47618;DHT22;33336;36.728;-4.414;2023-11-19T08:49:57;17.50;98.50
47618;DHT22;33336;36.728;-4.414;2023-11-19T08:55:01;17.60;98.20
47618;DHT22;33336;36.728;-4.414;2023-11-19T09:00:07;17.80;98.10
47618;DHT22;33336;36.728;-4.414;2023-11-19T09:05:11;17.80;97.90
47618;DHT22;33336;36.728;-4.414;2023-11-19T09:10:14;18.40;97.60
47618;DHT22;33336;36.728;-4.414;2023-11-19T09:15:18;18.00;98.00
47618;DHT22;33336;36.728;-4.414;2023-11-19T09:20:22;18.30;97.80
47618;DHT22;33336;36.728;-4.414;2023-11-19T09:25:26;18.20;97.90
47618;DHT22;33336;36.728;-4.414;2023-11-19T09:30:29;18.60;97.70
47618;DHT22;33336;36.728;-4.414;2023-11-19T09:35:33;18.50;98.00
47618;DHT22;33336;36.728;-4.414;2023-11-19T09:40:36;18.80;98.30
47618;DHT22;33336;36.728;-4.414;2023-11-19T09:45:48;18.90;98.80
47618;DHT22;33336;36.728;-4.414;2023-11-19T09:50:52;19.60;98.70
47618;DHT22;33336;36.728;-4.414;2023-11-19T09:55:56;20.10;98.70
47618;DHT22;33336;36.728;-4.414;2023-11-19T10:00:59;19.80;98.70
47618;DHT22;33336;36.728;-4.414;2023-11-19T10:06:07;19.80;99.10
47618;DHT22;33336;36.728;-4.414;2023-11-19T10:11:10;20.20;98.90
47618;DHT22;33336;36.728;-4.414;2023-11-19T10:16:14;20.00;98.40
47618;DHT22;33336;36.728;-4.414;2023-11-19T10:21:19;20.30;98.00
47618;DHT22;33336;36.728;-4.414;2023-11-19T10:26:22;20.40;98.10
47618;DHT22;33336;36.728;-4.414;2023-11-19T10:31:25;20.20;97.80
47618;DHT22;33336;36.728;-4.414;2023-11-19T10:36:39;20.30;98.00
47618;DHT22;33336;36.728;-4.414;2023-11-19T10:41:43;20.60;97.10
47618;DHT22;33336;36.728;-4.414;2023-11-19T10:46:48;20.90;97.90
47618;DHT22;33336;36.728;-4.414;2023-11-19T10:51:53;20.50;97.70
47618;DHT22;33336;36.728;-4.414;2023-11-19T10:56:59;20.40;97.90
47618;DHT22;33336;36.728;-4.414;2023-11-19T11:02:06;20.80;97.90
47618;DHT22;33336;36.728;-4.414;2023-11-19T11:07:13;20.70;98.00
47618;DHT22;33336;36.728;-4.414;2023-11-19T11:12:18;21.50;97.40
47618;DHT22;33336;36.728;-4.414;2023-11-19T11:17:27;21.80;96.50
47618;DHT22;33336;36.728;-4.414;2023-11-19T11:22:40;21.70;96.70
47618;DHT22;33336;36.728;-4.414;2023-11-19T11:27:56;22.00;96.20
47618;DHT22;33336;36.728;-4.414;2023-11-19T11:33:10;21.60;96.10
47618;DHT22;33336;36.728;-4.414;2023-11-19T11:38:23;21.90;96.10
47618;DHT22;33336;36.728;-4.414;2023-11-19T11:43:44;21.70;95.90
47618;DHT22;33336;36.728;-4.414;2023-11-19T11:48:48;21.70;96.40
47618;DHT22;33336;36.728;-4.414;2023-11-19T11:53:53;21.30;96.20
47618;DHT22;33336;36.728;-4.414;2023-11-19T11:58:57;21.30;96.30
47618;DHT22;33336;36.728;-4.414;2023-11-19T12:04:01;22.40;96.50
47618;DHT22;33336;36.728;-4.414;2023-11-19T12:09:06;22.70;96.10
47618;DHT22;33336;36.728;-4.414;2023-11-19T12:14:09;22.10;95.70
47618;DHT22;33336;36.728;-4.414;2023-11-19T12:19:14;22.50;95.00
47618;DHT22;33336;36.728;-4.414;2023-11-19T12:24:19;22.00;95.40
47618;DHT22;33336;36.728;-4.414;2023-11-19T12:29:24;22.40;95.40
47618;DHT22;33336;36.728;-4.414;2023-11-19T12:34:27;23.30;94.30
47618;DHT22;33336;36.728;-4.414;2023-11-19T12:39:33;23.20;94.00
47618;DHT22;33336;36.728;-4.414;2023-11-19T12:44:35;23.90;94.20
47618;DHT22;33336;36.728;-4.414;2023-11-19T12:49:39;23.90;94.00
47618;DHT22;33336;36.728;-4.414;2023-11-19T12:54:43;23.50;93.30
47618;DHT22;33336;36.728;-4.414;2023-11-19T12:59:56;23.90;94.10
47618;DHT22;33336;36.728;-4.414;2023-11-19T13:04:59;24.50;92.80
47618;DHT22;33336;36.728;-4.414;2023-11-19T13:10:23;24.50;93.10
47618;DHT22;33336;36.728;-4.414;2023-11-19T13:15:26;24.00;91.90
47618;DHT22;33336;36.728;-4.414;2023-11-19T13:20:31;24.50;92.60
47618;DHT22;33336;36.728;-4.414;2023-11-19T13:25:35;24.90;92.70
47618;DHT22;33336;36.728;-4.414;2023-11-19T13:30:39;25.40;92.70
47618;DHT22;33336;36.728;-4.414;2023-11-19T13:35:42;25.50;92.40
47618;DHT22;33336;36.728;-4.414;2023-11-19T13:40:46;24.90;91.90
47618;DHT22;33336;36.728;-4.414;2023-11-19T13:45:49;25.90;91.90
47618;DHT22;33336;36.728;-4.414;2023-11-19T13:50:55;25.80;91.80
47618;DHT22;33336;36.728;-4.414;2023-11-19T13:55:59;25.20;91.00
47618;DHT22;33336;36.728;-4.414;2023-11-19T14:01:03;24.30;91.50
47618;DHT22;33336;36.728;-4.414;2023-11-19T14:06:07;25.70;92.10
47618;DHT22;33336;36.728;-4.414;2023-11-19T14:11:11;26.70;91.10
47618;DHT22;33336;36.728;-4.414;2023-11-19T14:16:17;27.90;89.50
47618;DHT22;33336;36.728;-4.414;2023-11-19T14:21:21;28.90;89.40
47618;DHT22;33336;36.728;-4.414;2023-11-19T14:26:27;27.10;86.20
47618;DHT22;33336;36.728;-4.414;2023-11-19T14:31:30;28.00;89.40
47618;DHT22;33336;36.728;-4.414;2023-11-19T14:36:33;30.40;88.60
47618;DHT22;33336;36.728;-4.414;2023-11-19T14:41:38;31.80;85.80
47618;DHT22;33336;36.728;-4.414;2023-11-19T14:46:41;32.40;83.20
47618;DHT22;33336;36.728;-4.414;2023-11-19T14:51:45;32.90;82.30
47618;DHT22;33336;36.728;-4.414;2023-11-19T14:56:49;30.50;81.30
47618;DHT22;33336;36.728;-4.414;2023-11-19T15:01:53;31.30;83.10
47618;DHT22;33336;36.728;-4.414;2023-11-19T15:06:56;32.60;80.70
47618;DHT22;33336;36.728;-4.414;2023-11-19T15:12:02;33.40;81.10
47618;DHT22;33336;36.728;-4.414;2023-11-19T15:17:04;34.20;79.90
47618;DHT22;33336;36.728;-4.414;2023-11-19T15:22:09;34.70;80.10
47618;DHT22;33336;36.728;-4.414;2023-11-19T15:27:23;34.60;78.30
47618;DHT22;33336;36.728;-4.414;2023-11-19T15:32:28;34.30;79.20
47618;DHT22;33336;36.728;-4.414;2023-11-19T15:37:33;35.40;78.00
47618;DHT22;33336;36.728;-4.414;2023-11-19T15:42:37;36.00;77.80
47618;DHT22;33336;36.728;-4.414;2023-11-19T15:47:40;36.10;76.40
47618;DHT22;33336;36.728;-4.414;2023-11-19T15:52:43;35.80;75.60
47618;DHT22;33336;36.728;-4.414;2023-11-19T15:57:48;35.80;76.20
47618;DHT22;33336;36.728;-4.414;2023-11-19T16:02:51;35.90;77.40
47618;DHT22;33336;36.728;-4.414;2023-11-19T16:07:54;36.00;76.10
47618;DHT22;33336;36.728;-4.414;2023-11-19T16:13:00;34.90;76.10
47618;DHT22;33336;36.728;-4.414;2023-11-19T16:18:03;32.60;75.70
47618;DHT22;33336;36.728;-4.414;2023-11-19T16:23:07;32.00;78.50
47618;DHT22;33336;36.728;-4.414;2023-11-19T16:28:11;33.40;77.70
47618;DHT22;33336;36.728;-4.414;2023-11-19T16:33:16;32.30;78.90
47618;DHT22;33336;36.728;-4.414;2023-11-19T16:38:19;30.90;80.70
47618;DHT22;33336;36.728;-4.414;2023-11-19T16:43:23;30.80;80.30
47618;DHT22;33336;36.728;-4.414;2023-11-19T16:48:29;29.40;81.40
47618;DHT22;33336;36.728;-4.414;2023-11-19T16:53:32;29.00;82.10
47618;DHT22;33336;36.728;-4.414;2023-11-19T16:58:36;27.80;84.00
47618;DHT22;33336;36.728;-4.414;2023-11-19T17:03:39;27.50;84.60
47618;DHT22;33336;36.728;-4.414;2023-11-19T17:08:42;26.90;85.10
47618;DHT22;33336;36.728;-4.414;2023-11-19T17:13:46;26.70;85.20
47618;DHT22;33336;36.728;-4.414;2023-11-19T17:18:50;26.20;85.30
47618;DHT22;33336;36.728;-4.414;2023-11-19T17:23:53;26.10;86.10
47618;DHT22;33336;36.728;-4.414;2023-11-19T17:28:58;25.60;86.80
47618;DHT22;33336;36.728;-4.414;2023-11-19T17:34:01;25.40;87.40
47618;DHT22;33336;36.728;-4.414;2023-11-19T17:39:04;24.90;88.00
47618;DHT22;33336;36.728;-4.414;2023-11-19T17:44:10;25.00;88.00
47618;DHT22;33336;36.728;-4.414;2023-11-19T17:49:13;24.50;88.90
47618;DHT22;33336;36.728;-4.414;2023-11-19T17:54:16;24.40;89.10
47618;DHT22;33336;36.728;-4.414;2023-11-19T17:59:21;23.90;90.20
47618;DHT22;33336;36.728;-4.414;2023-11-19T18:04:25;23.60;90.60
47618;DHT22;33336;36.728;-4.414;2023-11-19T18:09:29;23.60;90.50
47618;DHT22;33336;36.728;-4.414;2023-11-19T18:14:33;23.40;90.90
47618;DHT22;33336;36.728;-4.414;2023-11-19T18:19:37;23.10;91.30
47618;DHT22;33336;36.728;-4.414;2023-11-19T18:24:40;23.00;91.50
47618;DHT22;33336;36.728;-4.414;2023-11-19T18:29:45;22.80;91.70
47618;DHT22;33336;36.728;-4.414;2023-11-19T18:34:49;22.60;91.80
47618;DHT22;33336;36.728;-4.414;2023-11-19T18:39:52;22.60;91.70
47618;DHT22;33336;36.728;-4.414;2023-11-19T18:44:56;22.30;91.90
47618;DHT22;33336;36.728;-4.414;2023-11-19T18:50:00;22.40;91.70
47618;DHT22;33336;36.728;-4.414;2023-11-19T18:55:03;22.00;92.00
47618;DHT22;33336;36.728;-4.414;2023-11-19T19:00:09;21.90;92.30
47618;DHT22;33336;36.728;-4.414;2023-11-19T19:05:12;21.90;92.10
47618;DHT22;33336;36.728;-4.414;2023-11-19T19:10:18;21.80;92.40
47618;DHT22;33336;36.728;-4.414;2023-11-19T19:15:22;21.70;92.30
47618;DHT22;33336;36.728;-4.414;2023-11-19T19:20:27;21.60;92.10
47618;DHT22;33336;36.728;-4.414;2023-11-19T19:25:30;21.40;92.20
47618;DHT22;33336;36.728;-4.414;2023-11-19T19:30:34;21.50;92.00
47618;DHT22;33336;36.728;-4.414;2023-11-19T19:35:37;21.20;92.00
47618;DHT22;33336;36.728;-4.414;2023-11-19T19:40:40;21.20;91.80
47618;DHT22;33336;36.728;-4.414;2023-11-19T19:45:45;20.60;92.20
47618;DHT22;33336;36.728;-4.414;2023-11-19T19:50:48;20.90;92.10
47618;DHT22;33336;36.728;-4.414;2023-11-19T19:55:51;20.90;92.00
47618;DHT22;33336;36.728;-4.414;2023-11-19T20:00:56;20.70;92.20
47618;DHT22;33336;36.728;-4.414;2023-11-19T20:05:59;20.60;92.40
47618;DHT22;33336;36.728;-4.414;2023-11-19T20:11:03;20.60;92.30
47618;DHT22;33336;36.728;-4.414;2023-11-19T20:16:09;20.20;92.80
47618;DHT22;33336;36.728;-4.414;2023-11-19T20:21:13;20.40;92.90
47618;DHT22;33336;36.728;-4.414;2023-11-19T20:26:16;20.40;92.70
47618;DHT22;33336;36.728;-4.414;2023-11-19T20:31:21;20.00;93.00
47618;DHT22;33336;36.728;-4.414;2023-11-19T20:36:24;20.00;93.10
47618;DHT22;33336;36.728;-4.414;2023-11-19T20:41:28;20.10;93.20
47618;DHT22;33336;36.728;-4.414;2023-11-19T20:46:37;20.00;93.10
47618;DHT22;33336;36.728;-4.414;2023-11-19T20:51:40;20.00;93.10
47618;DHT22;33336;36.728;-4.414;2023-11-19T20:56:44;20.00;92.90
47618;DHT22;33336;36.728;-4.414;2023-11-19T21:01:48;20.00;93.10
47618;DHT22;33336;36.728;-4.414;2023-11-19T21:06:52;19.80;92.90
47618;DHT22;33336;36.728;-4.414;2023-11-19T21:11:54;19.70;93.20
47618;DHT22;33336;36.728;-4.414;2023-11-19T21:16:59;19.70;93.00
47618;DHT22;33336;36.728;-4.414;2023-11-19T21:22:02;19.70;92.90
47618;DHT22;33336;36.728;-4.414;2023-11-19T21:27:06;19.50;92.90
47618;DHT22;33336;36.728;-4.414;2023-11-19T21:32:10;19.50;92.60
47618;DHT22;33336;36.728;-4.414;2023-11-19T21:37:14;19.40;92.80
47618;DHT22;33336;36.728;-4.414;2023-11-19T21:42:17;19.30;93.10
47618;DHT22;33336;36.728;-4.414;2023-11-19T21:47:21;19.20;93.00
47618;DHT22;33336;36.728;-4.414;2023-11-19T21:52:24;19.30;92.90
47618;DHT22;33336;36.728;-4.414;2023-11-19T21:57:27;19.20;93.00
47618;DHT22;33336;36.728;-4.414;2023-11-19T22:02:31;19.30;92.90
47618;DHT22;33336;36.728;-4.414;2023-11-19T22:07:34;19.20;92.90
47618;DHT22;33336;36.728;-4.414;2023-11-19T22:12:37;18.80;93.30
47618;DHT22;33336;36.728;-4.414;2023-11-19T22:17:43;18.70;93.30
47618;DHT22;33336;36.728;-4.414;2023-11-19T22:22:46;18.20;93.60
47618;DHT22;33336;36.728;-4.414;2023-11-19T22:27:51;18.50;93.40
47618;DHT22;33336;36.728;-4.414;2023-11-19T22:32:56;18.60;93.20
47618;DHT22;33336;36.728;-4.414;2023-11-19T22:38:00;18.60;92.90
47618;DHT22;33336;36.728;-4.414;2023-11-19T22:43:03;18.60;92.80
47618;DHT22;33336;36.728;-4.414;2023-11-19T22:48:08;18.60;92.50
47618;DHT22;33336;36.728;-4.414;2023-11-19T22:53:11;18.60;92.60
47618;DHT22;33336;36.728;-4.414;2023-11-19T22:58:15;18.50;92.60
47618;DHT22;33336;36.728;-4.414;2023-11-19T23:03:19;18.50;92.70
47618;DHT22;33336;36.728;-4.414;2023-11-19T23:08:22;18.10;92.70
47618;DHT22;33336;36.728;-4.414;2023-11-19T23:13:24;17.90;93.00
47618;DHT22;33336;36.728;-4.414;2023-11-19T23:18:29;18.00;92.90
47618;DHT22;33336;36.728;-4.414;2023-11-19T23:23:32;17.70;93.10
47618;DHT22;33336;36.728;-4.414;2023-11-19T23:28:36;17.70;93.10
47618;DHT22;33336;36.728;-4.414;2023-11-19T23:33:40;18.00;92.90
47618;DHT22;33336;36.728;-4.414;2023-11-19T23:38:44;18.20;92.80
47618;DHT22;33336;36.728;-4.414;2023-11-19T23:43:46;18.10;92.80
47618;DHT22;33336;36.728;-4.414;2023-11-19T23:48:52;18.20;92.80
47618;DHT22;33336;36.728;-4.414;2023-11-19T23:53:56;18.20;93.00
47618;DHT22;33336;36.728;-4.414;2023-11-19T23:59:00;18.20;93.00
